createdAt,value
2023-02-27T00:02:25.346Z,80.19
2023-02-27T00:04:52.271Z,80.40
2023-02-27T00:07:18.733Z,80.07
2023-02-27T00:09:45.161Z,80.03
2023-02-27T00:12:12.210Z,79.36
2023-02-27T00:14:38.831Z,79.32
2023-02-27T00:17:05.261Z,78.85
2023-02-27T00:19:31.814Z,78.94
2023-02-27T00:21:58.253Z,78.67
2023-02-27T00:24:24.738Z,78.31
2023-02-27T00:26:51.159Z,78.52
2023-02-27T00:29:20.334Z,78.35
2023-02-27T00:31:46.846Z,78.46
2023-02-27T00:34:13.500Z,78.70
2023-02-27T00:36:40.127Z,78.25
2023-02-27T00:39:06.671Z,78.22
2023-02-27T00:41:33.138Z,78.38
2023-02-27T00:43:59.626Z,78.73
2023-02-27T00:46:26.114Z,78.59
2023-02-27T00:48:52.865Z,78.23
2023-02-27T00:51:20.211Z,78.18
2023-02-27T00:53:46.711Z,77.97
2023-02-27T00:56:13.406Z,77.88
2023-02-27T00:58:39.838Z,77.52
2023-02-27T01:01:06.457Z,77.71
2023-02-27T01:03:33.056Z,77.82
2023-02-27T01:05:59.496Z,78.12
2023-02-27T01:08:25.952Z,78.63
2023-02-27T01:10:55.649Z,79.09
2023-02-27T01:13:22.632Z,79.01
2023-02-27T01:15:49.778Z,79.29
2023-02-27T01:18:16.220Z,79.08
2023-02-27T01:20:43.127Z,78.68
2023-02-27T01:23:09.534Z,78.83
2023-02-27T01:25:35.950Z,78.84
2023-02-27T01:28:02.374Z,79.01
2023-02-27T01:30:28.891Z,79.06
2023-02-27T01:32:55.380Z,78.74
2023-02-27T01:35:21.807Z,79.00
2023-02-27T01:37:48.259Z,78.71
2023-02-27T01:40:14.867Z,78.65
2023-02-27T01:42:41.356Z,78.65
2023-02-27T01:45:27.734Z,79.44
2023-02-27T01:48:03.912Z,79.44
2023-02-27T01:50:31.617Z,78.98
2023-02-27T01:53:01.350Z,79.40
2023-02-27T01:55:32.031Z,79.24
2023-02-27T01:58:00.162Z,78.99
2023-02-27T02:00:27.375Z,78.98
2023-02-27T02:03:07.863Z,79.66
2023-02-27T02:05:34.515Z,79.05
2023-02-27T02:08:01.328Z,79.43
2023-02-27T02:10:29.465Z,79.55
2023-02-27T02:12:56.588Z,79.95
2023-02-27T02:15:29.928Z,80.57
2023-02-27T02:18:20.066Z,80.84
2023-02-27T02:21:12.338Z,80.41
2023-02-27T02:24:15.483Z,80.52
2023-02-27T02:27:03.859Z,80.33
2023-02-27T02:29:52.000Z,80.81
2023-02-27T02:32:41.359Z,80.41
2023-02-27T02:35:45.498Z,80.73
2023-02-27T02:38:24.198Z,81.02
2023-02-27T02:41:01.437Z,80.54
2023-02-27T02:43:38.209Z,80.53
2023-02-27T02:46:16.424Z,80.62
2023-02-27T02:48:58.374Z,80.43
2023-02-27T02:51:30.537Z,80.14
2023-02-27T02:54:04.930Z,80.00
2023-02-27T02:56:56.855Z,80.79
2023-02-27T02:59:32.282Z,80.41
2023-02-27T03:02:04.737Z,80.56
2023-02-27T03:04:40.477Z,80.69
2023-02-27T03:07:13.817Z,80.62
2023-02-27T03:09:49.895Z,80.31
2023-02-27T03:12:21.463Z,80.10
2023-02-27T03:14:59.781Z,79.97
2023-02-27T03:17:47.239Z,80.15
2023-02-27T03:20:24.783Z,80.01
2023-02-27T03:22:56.812Z,79.71
2023-02-27T03:25:27.168Z,79.67
2023-02-27T03:28:07.372Z,80.41
2023-02-27T03:31:00.867Z,80.95
2023-02-27T03:33:35.127Z,80.66
2023-02-27T03:36:21.149Z,81.13
2023-02-27T03:39:06.642Z,80.82
2023-02-27T03:41:37.780Z,80.16
2023-02-27T03:44:46.463Z,81.05
2023-02-27T03:47:15.864Z,80.57
2023-02-27T03:49:42.363Z,80.63
2023-02-27T03:52:09.116Z,80.67
2023-02-27T03:54:39.654Z,80.45
2023-02-27T03:57:08.936Z,80.77
2023-02-27T03:59:37.957Z,80.91
2023-02-27T04:02:04.668Z,80.88
2023-02-27T04:04:32.790Z,81.08
2023-02-27T04:07:24.505Z,81.41
2023-02-27T04:10:14.995Z,81.31
2023-02-27T04:12:59.654Z,80.59
2023-02-27T04:15:41.160Z,80.93
2023-02-27T04:18:29.075Z,80.79
2023-02-27T04:21:36.993Z,80.72
2023-02-27T04:24:32.678Z,79.89
2023-02-27T04:27:11.887Z,80.34
2023-02-27T04:29:57.378Z,80.88
2023-02-27T04:32:43.374Z,81.69
2023-02-27T04:35:20.535Z,81.71
2023-02-27T04:38:02.398Z,81.85
2023-02-27T04:40:39.555Z,81.83
2023-02-27T04:43:10.277Z,82.11
2023-02-27T04:45:41.266Z,81.82
2023-02-27T04:48:16.699Z,82.41
2023-02-27T04:50:51.821Z,81.97
2023-02-27T04:53:24.474Z,81.92
2023-02-27T04:56:04.740Z,82.08
2023-02-27T04:58:41.997Z,82.31
2023-02-27T05:01:14.987Z,82.27
2023-02-27T05:03:47.642Z,82.40
2023-02-27T05:06:17.236Z,81.71
2023-02-27T05:08:58.949Z,82.36
2023-02-27T05:11:43.574Z,82.33
2023-02-27T05:14:28.412Z,82.50
2023-02-27T05:17:03.315Z,82.29
2023-02-27T05:19:32.405Z,82.18
2023-02-27T05:21:58.752Z,82.02
2023-02-27T05:24:44.455Z,82.73
2023-02-27T05:27:25.623Z,82.92
2023-02-27T05:29:55.649Z,82.40
2023-02-27T05:32:27.983Z,82.63
2023-02-27T05:35:19.878Z,82.63
2023-02-27T05:38:09.952Z,82.96
2023-02-27T05:40:41.537Z,82.53
2023-02-27T05:43:16.836Z,82.19
2023-02-27T05:45:46.871Z,82.18
2023-02-27T05:48:25.695Z,82.10
2023-02-27T05:50:52.934Z,81.72
2023-02-27T05:53:22.053Z,81.70
2023-02-27T05:55:54.397Z,81.99
2023-02-27T05:58:32.567Z,82.11
2023-02-27T06:01:01.972Z,81.87
2023-02-27T06:03:31.779Z,81.74
2023-02-27T06:06:04.945Z,81.67
2023-02-27T06:08:31.750Z,81.79
2023-02-27T06:10:58.372Z,81.58
2023-02-27T06:13:26.238Z,81.67
2023-02-27T06:15:53.304Z,82.18
2023-02-27T06:18:20.313Z,81.71
2023-02-27T06:20:47.316Z,82.07
2023-02-27T06:23:13.994Z,81.86
2023-02-27T06:25:42.338Z,81.83
2023-02-27T06:28:10.209Z,81.56
2023-02-27T06:30:37.066Z,81.37
2023-02-27T06:33:04.299Z,81.45
2023-02-27T06:35:31.073Z,81.61
2023-02-27T06:37:57.749Z,81.19
2023-02-27T06:40:24.456Z,81.30
2023-02-27T06:42:51.082Z,81.32
2023-02-27T06:45:18.021Z,81.12
2023-02-27T06:47:44.829Z,81.00
2023-02-27T06:50:14.311Z,81.44
2023-02-27T06:52:41.350Z,81.06
2023-02-27T06:55:09.334Z,81.51
2023-02-27T06:57:36.226Z,81.20
2023-02-27T07:00:04.347Z,81.92
2023-02-27T07:02:32.822Z,82.29
2023-02-27T07:04:59.344Z,82.93
2023-02-27T07:07:33.939Z,83.34
2023-02-27T07:10:08.989Z,83.51
2023-02-27T07:12:35.463Z,83.64
2023-02-27T07:15:01.911Z,84.29
2023-02-27T07:17:28.416Z,84.89
2023-02-27T07:19:54.826Z,85.15
2023-02-27T07:22:21.309Z,85.55
2023-02-27T07:24:47.757Z,85.73
2023-02-27T07:27:14.161Z,86.39
2023-02-27T07:29:40.564Z,86.80
2023-02-27T07:32:07.055Z,87.00
2023-02-27T07:34:33.493Z,87.51
2023-02-27T07:37:00.052Z,87.70
2023-02-27T07:39:26.492Z,87.69
2023-02-27T07:41:52.983Z,87.55
2023-02-27T07:44:19.526Z,87.73
2023-02-27T07:46:47.327Z,87.36
2023-02-27T07:49:14.077Z,87.28
2023-02-27T07:51:40.526Z,87.40
2023-02-27T07:54:06.980Z,87.05
2023-02-27T07:56:33.470Z,87.01
2023-02-27T07:58:59.931Z,86.97
2023-02-27T08:01:26.617Z,86.15
2023-02-27T08:03:53.094Z,86.54
2023-02-27T08:06:19.504Z,86.41
2023-02-27T08:11:28.394Z,86.07
2023-02-27T08:14:00.607Z,85.89
2023-02-27T08:16:28.536Z,85.51
2023-02-27T08:18:55.381Z,85.62
2023-02-27T08:21:22.167Z,85.93
2023-02-27T08:23:48.674Z,86.03
2023-02-27T08:26:15.318Z,86.45
2023-02-27T08:28:41.735Z,86.17
2023-02-27T08:31:08.258Z,86.51
2023-02-27T08:33:34.837Z,86.23
2023-02-27T08:36:01.790Z,86.03
2023-02-27T08:38:28.474Z,86.62
2023-02-27T08:40:55.219Z,86.07
2023-02-27T08:43:23.198Z,85.77
2023-02-27T08:45:50.333Z,86.05
2023-02-27T08:48:18.470Z,85.10
2023-02-27T08:50:45.291Z,85.21
2023-02-27T08:53:12.433Z,84.82
2023-02-27T08:55:38.883Z,84.40
2023-02-27T08:58:05.324Z,84.44
2023-02-27T09:00:32.813Z,84.27
2023-02-27T09:03:00.565Z,83.86
2023-02-27T09:05:27.778Z,83.62
2023-02-27T09:07:54.222Z,83.46
2023-02-27T09:10:20.632Z,82.98
2023-02-27T09:12:49.142Z,82.46
2023-02-27T09:15:15.709Z,81.21
2023-02-27T09:17:42.297Z,80.32
2023-02-27T09:20:10.651Z,80.35
2023-02-27T09:22:37.405Z,79.58
2023-02-27T09:25:04.341Z,78.78
2023-02-27T09:27:30.792Z,77.54
2023-02-27T09:29:57.381Z,77.48
2023-02-27T09:32:24.785Z,76.22
2023-02-27T09:34:51.649Z,74.46
2023-02-27T09:37:21.400Z,72.35
2023-02-27T09:39:47.873Z,71.05
2023-02-27T09:42:28.754Z,69.12
2023-02-27T09:45:05.502Z,67.96
2023-02-27T09:47:42.118Z,67.71
2023-02-27T09:50:31.545Z,66.53
2023-02-27T09:52:59.398Z,63.47
2023-02-27T09:55:30.254Z,61.85
2023-02-27T09:58:31.053Z,63.06
2023-02-27T10:01:09.395Z,60.70
2023-02-27T10:03:57.755Z,59.18
2023-02-27T10:06:36.994Z,55.37
2023-02-27T10:09:42.681Z,56.52
2023-02-27T10:12:15.329Z,55.21
2023-02-27T10:14:52.116Z,52.13
2023-02-27T10:17:27.800Z,53.93
2023-02-27T10:19:55.289Z,49.27
2023-02-27T10:22:28.602Z,48.84
2023-02-27T10:25:02.352Z,49.96
2023-02-27T10:27:30.842Z,46.15
2023-02-27T10:30:27.258Z,47.66
2023-02-27T10:33:08.887Z,47.56
2023-02-27T10:35:38.918Z,47.39
2023-02-27T10:38:16.711Z,48.07
2023-02-27T10:40:45.399Z,48.36
2023-02-27T10:43:16.356Z,46.78
2023-02-27T10:45:43.841Z,46.93
2023-02-27T10:48:11.882Z,45.51
2023-02-27T10:50:44.288Z,45.57
2023-02-27T10:53:21.736Z,47.11
2023-02-27T10:56:02.942Z,48.50
2023-02-27T10:58:40.674Z,47.27
2023-02-27T11:01:10.625Z,48.50
2023-02-27T11:03:41.458Z,48.17
2023-02-27T11:06:30.122Z,48.50
2023-02-27T11:09:20.998Z,48.91
2023-02-27T11:11:47.694Z,48.40
2023-02-27T11:14:27.986Z,49.01
2023-02-27T11:16:55.777Z,50.79
2023-02-27T11:19:39.024Z,49.93
2023-02-27T11:22:20.176Z,49.18
2023-02-27T11:24:48.182Z,48.99
2023-02-27T11:27:22.616Z,49.11
2023-02-27T11:30:04.782Z,49.81
2023-02-27T11:32:48.080Z,50.34
2023-02-27T11:35:38.881Z,51.13
2023-02-27T11:38:19.064Z,49.84
2023-02-27T11:40:54.242Z,49.81
2023-02-27T11:43:25.498Z,49.64
2023-02-27T11:46:04.602Z,49.91
2023-02-27T11:48:47.452Z,49.54
2023-02-27T11:51:54.864Z,50.44
2023-02-27T11:54:32.338Z,50.68
2023-02-27T11:57:04.652Z,50.65
2023-02-27T11:59:31.737Z,50.41
2023-02-27T12:02:05.340Z,50.65
2023-02-27T12:04:50.138Z,51.03
2023-02-27T12:07:38.624Z,51.02
2023-02-27T12:10:10.038Z,47.80
2023-02-27T12:12:45.652Z,48.27
2023-02-27T12:15:51.173Z,47.42
2023-02-27T12:18:30.461Z,46.96
2023-02-27T12:21:06.214Z,46.35
2023-02-27T12:23:41.551Z,44.74
2023-02-27T12:26:17.596Z,45.72
2023-02-27T12:29:02.228Z,46.52
2023-02-27T12:31:32.516Z,46.12
2023-02-27T12:34:25.927Z,47.60
2023-02-27T12:36:53.323Z,46.67
2023-02-27T12:39:22.905Z,46.68
2023-02-27T12:42:15.645Z,46.61
2023-02-27T12:45:03.510Z,46.58
2023-02-27T12:47:32.837Z,46.30
2023-02-27T12:50:20.638Z,46.11
2023-02-27T12:53:14.851Z,45.05
2023-02-27T12:55:47.269Z,43.79
2023-02-27T12:58:16.686Z,43.54
2023-02-27T13:00:48.074Z,42.18
2023-02-27T13:03:22.157Z,42.78
2023-02-27T13:06:03.388Z,42.19
2023-02-27T13:08:55.081Z,42.81
2023-02-27T13:11:39.621Z,39.32
2023-02-27T13:14:11.864Z,41.32
2023-02-27T13:16:46.035Z,39.15
2023-02-27T13:19:23.934Z,40.18
2023-02-27T13:22:04.070Z,39.64
2023-02-27T13:24:32.228Z,40.00
2023-02-27T13:27:11.749Z,39.91
2023-02-27T13:29:41.350Z,39.27
2023-02-27T13:32:44.238Z,41.38
2023-02-27T13:35:32.982Z,39.90
2023-02-27T13:38:03.474Z,40.27
2023-02-27T13:40:39.840Z,40.60
2023-02-27T13:43:26.213Z,39.93
2023-02-27T13:45:55.018Z,39.71
2023-02-27T13:48:33.414Z,40.03
2023-02-27T13:51:01.126Z,38.86
2023-02-27T13:53:28.893Z,38.71
2023-02-27T13:56:00.024Z,39.06
2023-02-27T13:58:26.583Z,39.15
2023-02-27T14:00:59.893Z,38.78
2023-02-27T14:03:30.475Z,38.41
2023-02-27T14:06:01.100Z,37.16
2023-02-27T14:08:46.654Z,38.13
2023-02-27T14:11:20.766Z,38.89
2023-02-27T14:13:50.221Z,39.15
2023-02-27T14:16:39.038Z,40.24
2023-02-27T14:19:11.175Z,39.37
2023-02-27T14:21:52.622Z,39.67
2023-02-27T14:24:23.428Z,39.44
2023-02-27T14:26:52.240Z,38.95
2023-02-27T14:29:30.848Z,39.58
2023-02-27T14:32:00.847Z,39.94
2023-02-27T14:34:28.482Z,40.42
2023-02-27T14:36:59.668Z,41.01
2023-02-27T14:39:37.214Z,42.07
2023-02-27T14:42:06.758Z,41.87
2023-02-27T14:44:45.500Z,42.49
2023-02-27T14:47:23.997Z,42.11
2023-02-27T14:49:50.430Z,41.57
2023-02-27T14:52:29.765Z,42.05
2023-02-27T14:55:30.179Z,42.61
2023-02-27T14:58:14.633Z,41.92
2023-02-27T15:00:42.546Z,42.48
2023-02-27T15:03:17.828Z,43.17
2023-02-27T15:05:45.499Z,43.93
2023-02-27T15:08:34.789Z,44.38
2023-02-27T15:11:02.482Z,44.62
2023-02-27T15:13:32.104Z,44.97
2023-02-27T15:16:21.684Z,45.37
2023-02-27T15:18:52.954Z,45.63
2023-02-27T15:21:21.972Z,46.34
2023-02-27T15:23:57.512Z,46.58
2023-02-27T15:26:24.992Z,46.53
2023-02-27T15:28:51.713Z,46.48
2023-02-27T15:31:22.577Z,46.69
2023-02-27T15:33:50.510Z,47.58
2023-02-27T15:36:21.827Z,47.58
2023-02-27T15:39:19.415Z,48.21
2023-02-27T15:41:58.980Z,48.41
2023-02-27T15:44:42.411Z,48.57
2023-02-27T15:47:12.922Z,48.89
2023-02-27T15:49:39.560Z,49.64
2023-02-27T15:52:17.314Z,49.80
2023-02-27T15:54:51.707Z,50.35
2023-02-27T15:57:20.728Z,50.56
2023-02-27T15:59:47.408Z,50.80
2023-02-27T16:02:23.326Z,51.07
2023-02-27T16:04:50.406Z,51.38
2023-02-27T16:07:22.943Z,51.60
2023-02-27T16:10:06.241Z,51.94
2023-02-27T16:12:37.119Z,52.20
2023-02-27T16:15:24.526Z,52.12
2023-02-27T16:17:54.508Z,52.50
2023-02-27T16:20:30.424Z,53.41
2023-02-27T16:23:16.002Z,53.54
2023-02-27T16:25:58.971Z,54.03
2023-02-27T16:28:31.551Z,54.47
2023-02-27T16:30:58.211Z,54.88
2023-02-27T16:33:30.269Z,55.21
2023-02-27T16:36:19.706Z,54.87
2023-02-27T16:38:46.626Z,55.58
2023-02-27T16:41:17.193Z,55.64
2023-02-27T16:43:46.157Z,55.85
2023-02-27T16:46:19.925Z,55.98
2023-02-27T16:49:00.735Z,56.12
2023-02-27T16:51:34.583Z,56.73
2023-02-27T16:54:01.083Z,56.66
2023-02-27T16:56:37.660Z,57.24
2023-02-27T16:59:04.413Z,57.16
2023-02-27T17:01:33.005Z,57.69
2023-02-27T17:04:00.478Z,57.93
2023-02-27T17:06:27.478Z,58.50
2023-02-27T17:08:56.285Z,58.50
2023-02-27T17:11:22.805Z,59.06
2023-02-27T17:13:49.244Z,59.58
2023-02-27T17:16:15.949Z,59.28
2023-02-27T17:18:42.437Z,59.06
2023-02-27T17:21:08.936Z,59.81
2023-02-27T17:23:35.335Z,59.59
2023-02-27T17:26:01.752Z,59.76
2023-02-27T17:28:31.275Z,59.59
2023-02-27T17:30:58.002Z,59.98
2023-02-27T17:33:24.449Z,60.01
2023-02-27T17:35:52.878Z,60.04
2023-02-27T17:38:19.348Z,60.23
2023-02-27T17:40:45.864Z,60.44
2023-02-27T17:43:12.396Z,60.57
2023-02-27T17:45:38.908Z,60.71
2023-02-27T17:48:05.621Z,60.89
2023-02-27T17:50:32.417Z,61.09
2023-02-27T17:52:58.832Z,61.13
2023-02-27T17:55:25.338Z,61.28
2023-02-27T17:57:51.950Z,61.43
2023-02-27T18:00:18.799Z,62.30
2023-02-27T18:02:45.410Z,61.89
2023-02-27T18:05:12.083Z,62.11
2023-02-27T18:07:38.945Z,62.02
2023-02-27T18:10:06.966Z,62.05
2023-02-27T18:12:33.955Z,62.14
2023-02-27T18:15:00.962Z,62.18
2023-02-27T18:17:27.988Z,62.29
2023-02-27T18:19:54.475Z,62.44
2023-02-27T18:22:22.047Z,62.59
2023-02-27T18:24:49.384Z,62.43
2023-02-27T18:27:15.823Z,62.85
2023-02-27T18:29:43.744Z,62.91
2023-02-27T18:32:10.502Z,63.11
2023-02-27T18:34:38.902Z,63.08
2023-02-27T18:37:05.285Z,63.59
2023-02-27T18:39:31.730Z,64.08
2023-02-27T18:41:58.490Z,63.31
2023-02-27T18:44:25.089Z,63.00
2023-02-27T18:46:51.635Z,63.58
2023-02-27T18:49:18.056Z,63.75
2023-02-27T18:51:44.450Z,63.36
2023-02-27T18:54:13.524Z,63.34
2023-02-27T18:56:40.631Z,63.43
2023-02-27T18:59:07.592Z,63.36
2023-02-27T19:01:36.934Z,63.91
2023-02-27T19:04:05.894Z,63.35
2023-02-27T19:06:34.605Z,63.34
2023-02-27T19:09:01.235Z,63.29
2023-02-27T19:11:33.798Z,63.25
2023-02-27T19:14:02.593Z,63.63
2023-02-27T19:16:30.615Z,63.46
2023-02-27T19:18:58.849Z,63.96
2023-02-27T19:21:26.824Z,63.51
2023-02-27T19:23:53.765Z,63.67
2023-02-27T19:26:21.500Z,63.97
2023-02-27T19:28:53.809Z,64.54
2023-02-27T19:31:22.389Z,63.75
2023-02-27T19:33:49.082Z,62.83
2023-02-27T19:36:18.202Z,62.70
2023-02-27T19:38:44.678Z,62.88
2023-02-27T19:41:13.974Z,62.81
2023-02-27T19:43:41.315Z,61.87
2023-02-27T19:46:10.960Z,61.55
2023-02-27T19:48:38.317Z,60.99
2023-02-27T19:51:07.142Z,60.47
2023-02-27T19:53:35.820Z,60.18
2023-02-27T19:56:04.836Z,60.28
2023-02-27T19:58:31.758Z,60.24
2023-02-27T20:01:00.773Z,59.95
2023-02-27T20:03:29.090Z,60.01
2023-02-27T20:05:56.462Z,60.06
2023-02-27T20:08:23.360Z,59.56
2023-02-27T20:11:08.135Z,59.95
2023-02-27T20:13:34.612Z,60.35
2023-02-27T20:16:08.051Z,60.93
2023-02-27T20:18:36.076Z,60.80
2023-02-27T20:21:04.052Z,61.20
2023-02-27T20:23:31.698Z,61.03
2023-02-27T20:25:58.602Z,61.30
2023-02-27T20:28:25.199Z,61.32
2023-02-27T20:30:52.173Z,61.28
2023-02-27T20:33:18.900Z,60.88
2023-02-27T20:35:45.749Z,61.11
2023-02-27T20:38:12.416Z,61.34
2023-02-27T20:40:38.784Z,62.21
2023-02-27T20:43:05.359Z,62.00
2023-02-27T20:45:31.835Z,61.90
2023-02-27T20:47:58.497Z,61.84
2023-02-27T20:50:24.887Z,61.63
2023-02-27T20:52:54.009Z,62.31
2023-02-27T20:55:20.722Z,62.18
2023-02-27T20:57:47.246Z,62.22
2023-02-27T21:00:15.804Z,61.70
2023-02-27T21:02:42.423Z,62.24
2023-02-27T21:05:09.210Z,61.86
2023-02-27T21:07:35.955Z,61.93
2023-02-27T21:10:02.470Z,62.11
2023-02-27T21:12:28.969Z,62.57
2023-02-27T21:14:56.008Z,62.41
2023-02-27T21:17:24.846Z,62.45
2023-02-27T21:19:51.796Z,62.25
2023-02-27T21:22:18.194Z,62.07
2023-02-27T21:24:46.465Z,61.97
2023-02-27T21:27:12.922Z,62.17
2023-02-27T21:29:39.314Z,61.41
2023-02-27T21:32:07.118Z,61.11
2023-02-27T21:34:33.586Z,61.48
2023-02-27T21:37:02.544Z,61.68
2023-02-27T21:39:29.118Z,61.92
2023-02-27T21:41:55.563Z,62.71
2023-02-27T21:44:26.179Z,62.40
2023-02-27T21:46:55.794Z,62.42
2023-02-27T21:49:28.391Z,62.14
2023-02-27T21:51:55.479Z,62.24
2023-02-27T21:54:22.579Z,62.44
2023-02-27T21:56:49.551Z,62.29
2023-02-27T21:59:17.283Z,62.41
2023-02-27T22:01:47.451Z,61.71
2023-02-27T22:04:14.432Z,61.97
2023-02-27T22:06:40.914Z,61.71
2023-02-27T22:09:07.941Z,62.20
2023-02-27T22:11:35.128Z,62.35
2023-02-27T22:14:03.593Z,63.34
2023-02-27T22:16:30.072Z,62.91
2023-02-27T22:18:57.625Z,62.48
2023-02-27T22:21:25.968Z,62.45
2023-02-27T22:23:52.854Z,62.10
2023-02-27T22:26:23.952Z,62.47
2023-02-27T22:28:52.132Z,62.71
2023-02-27T22:31:23.318Z,62.84
2023-02-27T22:33:52.561Z,62.31
2023-02-27T22:36:21.818Z,62.17
2023-02-27T22:38:48.630Z,61.97
2023-02-27T22:41:26.214Z,62.21
2023-02-27T22:43:53.045Z,61.78
2023-02-27T22:46:31.747Z,61.94
2023-02-27T22:49:03.078Z,61.57
2023-02-27T22:51:31.046Z,61.53
2023-02-27T22:53:59.889Z,61.65
2023-02-27T22:56:26.415Z,61.46
2023-02-27T22:58:53.313Z,61.80
2023-02-27T23:01:25.386Z,61.67
2023-02-27T23:03:53.465Z,61.13
2023-02-27T23:06:23.626Z,61.08
2023-02-27T23:08:50.057Z,61.05
2023-02-27T23:11:18.050Z,60.88
2023-02-27T23:13:44.712Z,60.63
2023-02-27T23:16:13.536Z,60.52
2023-02-27T23:18:48.419Z,61.23
2023-02-27T23:21:20.897Z,60.22
2023-02-27T23:23:47.751Z,60.14
2023-02-27T23:26:14.282Z,60.11
2023-02-27T23:28:41.407Z,59.78
2023-02-27T23:31:09.246Z,58.88
2023-02-27T23:33:35.723Z,57.71
2023-02-27T23:36:02.742Z,57.94
2023-02-27T23:38:29.718Z,57.84
2023-02-27T23:40:56.589Z,57.47
2023-02-27T23:43:42.368Z,57.60
2023-02-27T23:46:11.249Z,57.27
2023-02-27T23:48:38.028Z,57.59
2023-02-27T23:51:06.204Z,57.69
2023-02-27T23:53:33.776Z,57.21
2023-02-27T23:56:00.279Z,57.61
2023-02-27T23:58:26.780Z,57.73
